UAL2124 KIAH-KMFE
Flight info
| Callsign | UAL2124 |
|---|---|
| Flight time | 0h 53m |
| Altitude | 38000 |
| Route | RITAA7 NGP |
| Aircraft | B736/M-SDE2E3FGHIRWXY/LB1 |
Departure
| Time | 2026-04-18 04:22 |
|---|---|
| Airport | George Bush Intercontinental Airport (KIAH) |
Arrival
| Time | 2026-04-18 05:15 |
|---|---|
| Airport | McAllen Miller International Airport (KMFE) |
| Time | Latitude | Longitude | Altitude | Speed | Heading |
|---|---|---|---|---|---|
| 2026-04-18 03:57 | 29.98897 | -95.34104 | 106 ft | 0 kts | 240° |
| 2026-04-18 04:12 | 29.98901 | -95.34096 | 106 ft | 1 kts | 240° |
| 2026-04-18 04:12 | 29.98907 | -95.34086 | 106 ft | 1 kts | 239° |
| 2026-04-18 04:12 | 29.98912 | -95.34076 | 106 ft | 1 kts | 238° |
| 2026-04-18 04:12 | 29.98917 | -95.34066 | 106 ft | 1 kts | 256° |
| 2026-04-18 04:13 | 29.98919 | -95.34055 | 105 ft | 1 kts | 266° |
| 2026-04-18 04:13 | 29.98920 | -95.34043 | 106 ft | 1 kts | 265° |
| 2026-04-18 04:13 | 29.98921 | -95.34032 | 106 ft | 1 kts | 264° |
| 2026-04-18 04:13 | 29.98922 | -95.34020 | 106 ft | 1 kts | 263° |
| 2026-04-18 04:14 | 29.98923 | -95.34009 | 106 ft | 1 kts | 264° |
| 2026-04-18 04:14 | 29.98922 | -95.33997 | 105 ft | 1 kts | 302° |
| 2026-04-18 04:14 | 29.98916 | -95.33988 | 105 ft | 1 kts | 326° |
| 2026-04-18 04:14 | 29.98908 | -95.33981 | 104 ft | 1 kts | 349° |
| 2026-04-18 04:15 | 29.98905 | -95.33980 | 105 ft | 0 kts | 354° |
| 2026-04-18 04:16 | 29.98914 | -95.33982 | 103 ft | 3 kts | 354° |
| 2026-04-18 04:16 | 29.98949 | -95.33982 | 106 ft | 7 kts | 0° |
| 2026-04-18 04:16 | 29.99010 | -95.33980 | 106 ft | 11 kts | 1° |
| 2026-04-18 04:17 | 29.99083 | -95.34006 | 106 ft | 12 kts | 303° |
| 2026-04-18 04:17 | 29.99087 | -95.34098 | 106 ft | 11 kts | 269° |
| 2026-04-18 04:17 | 29.99087 | -95.34195 | 106 ft | 13 kts | 269° |
| 2026-04-18 04:17 | 29.99086 | -95.34303 | 106 ft | 14 kts | 269° |
| 2026-04-18 04:18 | 29.99086 | -95.34424 | 106 ft | 16 kts | 270° |
| 2026-04-18 04:18 | 29.99085 | -95.34557 | 106 ft | 17 kts | 270° |
| 2026-04-18 04:18 | 29.99086 | -95.34701 | 106 ft | 19 kts | 269° |
| 2026-04-18 04:18 | 29.99085 | -95.34855 | 106 ft | 20 kts | 271° |
| 2026-04-18 04:19 | 29.99090 | -95.35014 | 106 ft | 20 kts | 271° |
| 2026-04-18 04:19 | 29.99090 | -95.35171 | 106 ft | 19 kts | 270° |
| 2026-04-18 04:19 | 29.99091 | -95.35321 | 106 ft | 18 kts | 270° |
| 2026-04-18 04:19 | 29.99087 | -95.35446 | 105 ft | 11 kts | 256° |
| 2026-04-18 04:20 | 29.99027 | -95.35485 | 106 ft | 11 kts | 180° |
| 2026-04-18 04:20 | 29.98953 | -95.35485 | 106 ft | 10 kts | 184° |
| 2026-04-18 04:20 | 29.98896 | -95.35529 | 105 ft | 10 kts | 241° |
| 2026-04-18 04:20 | 29.98863 | -95.35600 | 106 ft | 10 kts | 241° |
| 2026-04-18 04:21 | 29.98830 | -95.35668 | 106 ft | 10 kts | 241° |
| 2026-04-18 04:21 | 29.98798 | -95.35735 | 106 ft | 9 kts | 236° |
| 2026-04-18 04:21 | 29.98741 | -95.35755 | 108 ft | 9 kts | 164° |
| 2026-04-18 04:21 | 29.98645 | -95.35699 | 106 ft | 35 kts | 152° |
| 2026-04-18 04:22 | 29.98186 | -95.35419 | 105 ft | 112 kts | 152° |
| 2026-04-18 04:22 | 29.97320 | -95.34882 | 252 ft | 160 kts | 153° |
| 2026-04-18 04:22 | 29.96319 | -95.34244 | 1036 ft | 161 kts | 149° |
| 2026-04-18 04:22 | 29.95437 | -95.33495 | 1986 ft | 168 kts | 138° |
| 2026-04-18 04:23 | 29.94651 | -95.32324 | 2398 ft | 200 kts | 132° |
| 2026-04-18 04:23 | 29.93735 | -95.30963 | 2736 ft | 229 kts | 134° |
| 2026-04-18 04:23 | 29.92695 | -95.29461 | 3366 ft | 245 kts | 134° |
| 2026-04-18 04:23 | 29.91607 | -95.27884 | 3964 ft | 255 kts | 133° |
| 2026-04-18 04:24 | 29.90490 | -95.26267 | 3972 ft | 260 kts | 133° |
| 2026-04-18 04:24 | 29.89367 | -95.24638 | 3972 ft | 259 kts | 133° |
| 2026-04-18 04:24 | 29.88266 | -95.23006 | 4009 ft | 259 kts | 131° |
| 2026-04-18 04:24 | 29.87231 | -95.21330 | 4742 ft | 257 kts | 129° |
| 2026-04-18 04:25 | 29.86171 | -95.19608 | 5001 ft | 268 kts | 130° |
| 2026-04-18 04:25 | 29.85087 | -95.17853 | 4998 ft | 269 kts | 130° |
| 2026-04-18 04:25 | 29.84015 | -95.16125 | 4980 ft | 268 kts | 129° |
| 2026-04-18 04:25 | 29.82938 | -95.14390 | 4967 ft | 264 kts | 130° |
| 2026-04-18 04:26 | 29.81730 | -95.12851 | 5294 ft | 248 kts | 146° |
| 2026-04-18 04:26 | 29.80317 | -95.11681 | 5857 ft | 259 kts | 148° |
| 2026-04-18 04:26 | 29.78840 | -95.10406 | 6626 ft | 270 kts | 146° |
| 2026-04-18 04:26 | 29.77322 | -95.09113 | 7452 ft | 272 kts | 154° |
| 2026-04-18 04:27 | 29.75551 | -95.08468 | 8316 ft | 268 kts | 179° |
| 2026-04-18 04:27 | 29.73723 | -95.08781 | 9160 ft | 268 kts | 202° |
| 2026-04-18 04:27 | 29.72100 | -95.09852 | 9933 ft | 275 kts | 220° |
| 2026-04-18 04:27 | 29.70633 | -95.11318 | 10598 ft | 284 kts | 221° |
| 2026-04-18 04:28 | 29.69075 | -95.12797 | 11187 ft | 298 kts | 220° |
| 2026-04-18 04:28 | 29.67429 | -95.14340 | 11753 ft | 311 kts | 220° |
| 2026-04-18 04:28 | 29.65720 | -95.15951 | 12275 ft | 325 kts | 221° |
| 2026-04-18 04:28 | 29.64029 | -95.17755 | 12819 ft | 337 kts | 225° |
| 2026-04-18 04:29 | 29.62333 | -95.19675 | 13421 ft | 347 kts | 226° |
| 2026-04-18 04:29 | 29.60588 | -95.21632 | 14120 ft | 352 kts | 225° |
| 2026-04-18 04:29 | 29.58726 | -95.23462 | 14940 ft | 354 kts | 215° |
| 2026-04-18 04:29 | 29.56542 | -95.24792 | 15830 ft | 355 kts | 207° |
| 2026-04-18 04:30 | 29.54297 | -95.25984 | 16646 ft | 357 kts | 208° |
| 2026-04-18 04:30 | 29.52029 | -95.27221 | 17237 ft | 366 kts | 208° |
| 2026-04-18 04:30 | 29.49704 | -95.28512 | 17748 ft | 375 kts | 208° |
| 2026-04-18 04:30 | 29.47314 | -95.29849 | 18050 ft | 389 kts | 209° |
| 2026-04-18 04:31 | 29.44850 | -95.31235 | 18458 ft | 397 kts | 209° |
| 2026-04-18 04:31 | 29.42361 | -95.32634 | 18981 ft | 399 kts | 209° |
| 2026-04-18 04:31 | 29.39863 | -95.34036 | 19556 ft | 400 kts | 209° |
| 2026-04-18 04:31 | 29.37360 | -95.35440 | 20113 ft | 402 kts | 209° |
| 2026-04-18 04:32 | 29.34840 | -95.36852 | 20637 ft | 405 kts | 209° |
| 2026-04-18 04:32 | 29.32297 | -95.38276 | 21153 ft | 407 kts | 209° |
| 2026-04-18 04:32 | 29.29743 | -95.39705 | 21660 ft | 410 kts | 209° |
| 2026-04-18 04:32 | 29.27165 | -95.41146 | 22166 ft | 412 kts | 209° |
| 2026-04-18 04:33 | 29.24579 | -95.42592 | 22657 ft | 415 kts | 210° |
| 2026-04-18 04:33 | 29.21977 | -95.44045 | 23137 ft | 418 kts | 210° |
| 2026-04-18 04:33 | 29.19359 | -95.45506 | 23595 ft | 420 kts | 210° |
| 2026-04-18 04:33 | 29.16724 | -95.46976 | 23985 ft | 422 kts | 210° |
| 2026-04-18 04:34 | 29.14078 | -95.48451 | 24394 ft | 423 kts | 210° |
| 2026-04-18 04:34 | 29.11423 | -95.49930 | 24728 ft | 426 kts | 210° |
| 2026-04-18 04:34 | 29.08747 | -95.51421 | 25060 ft | 429 kts | 210° |
| 2026-04-18 04:34 | 29.06058 | -95.52917 | 25442 ft | 430 kts | 210° |
| 2026-04-18 04:35 | 29.03355 | -95.54421 | 25834 ft | 432 kts | 210° |
| 2026-04-18 04:35 | 29.00689 | -95.55903 | 26198 ft | 433 kts | 210° |
| 2026-04-18 04:35 | 28.97976 | -95.57411 | 26542 ft | 435 kts | 210° |
| 2026-04-18 04:35 | 28.95251 | -95.58924 | 26879 ft | 437 kts | 210° |
| 2026-04-18 04:36 | 28.92514 | -95.60445 | 27216 ft | 438 kts | 210° |
| 2026-04-18 04:36 | 28.89951 | -95.62284 | 27508 ft | 434 kts | 223° |
| 2026-04-18 04:36 | 28.87883 | -95.64777 | 27828 ft | 431 kts | 232° |
| 2026-04-18 04:36 | 28.85998 | -95.67443 | 28160 ft | 432 kts | 233° |
| 2026-04-18 04:37 | 28.84126 | -95.70132 | 28447 ft | 434 kts | 233° |
| 2026-04-18 04:37 | 28.82245 | -95.72833 | 28704 ft | 436 kts | 233° |
| 2026-04-18 04:37 | 28.80349 | -95.75540 | 28982 ft | 437 kts | 233° |
| 2026-04-18 04:37 | 28.78442 | -95.78244 | 29252 ft | 438 kts | 233° |
| 2026-04-18 04:38 | 28.76528 | -95.80942 | 29580 ft | 437 kts | 232° |
| 2026-04-18 04:38 | 28.74617 | -95.83625 | 29991 ft | 434 kts | 232° |
| 2026-04-18 04:38 | 28.72719 | -95.86283 | 30379 ft | 431 kts | 233° |
| 2026-04-18 04:38 | 28.70829 | -95.88925 | 30795 ft | 428 kts | 233° |
| 2026-04-18 04:39 | 28.68944 | -95.91558 | 31234 ft | 425 kts | 233° |
| 2026-04-18 04:39 | 28.67081 | -95.94158 | 31678 ft | 421 kts | 233° |
| 2026-04-18 04:39 | 28.65234 | -95.96735 | 32129 ft | 418 kts | 233° |
| 2026-04-18 04:39 | 28.63402 | -95.99290 | 32600 ft | 415 kts | 233° |
| 2026-04-18 04:40 | 28.61583 | -96.01827 | 33082 ft | 412 kts | 234° |
| 2026-04-18 04:40 | 28.59777 | -96.04342 | 33575 ft | 409 kts | 234° |
| 2026-04-18 04:40 | 28.57988 | -96.06834 | 34058 ft | 405 kts | 234° |
| 2026-04-18 04:40 | 28.56211 | -96.09307 | 34472 ft | 402 kts | 234° |
| 2026-04-18 04:41 | 28.54465 | -96.11735 | 34821 ft | 401 kts | 234° |
| 2026-04-18 04:41 | 28.52679 | -96.14219 | 35166 ft | 399 kts | 234° |
| 2026-04-18 04:41 | 28.50946 | -96.16627 | 35407 ft | 399 kts | 234° |
| 2026-04-18 04:41 | 28.49165 | -96.19101 | 35686 ft | 399 kts | 234° |
| 2026-04-18 04:42 | 28.47411 | -96.21536 | 36017 ft | 397 kts | 234° |
| 2026-04-18 04:42 | 28.45669 | -96.23951 | 36348 ft | 395 kts | 234° |
| 2026-04-18 04:42 | 28.43933 | -96.26358 | 36648 ft | 393 kts | 234° |
| 2026-04-18 04:42 | 28.42201 | -96.28757 | 36925 ft | 392 kts | 234° |
| 2026-04-18 04:43 | 28.40497 | -96.31117 | 37215 ft | 391 kts | 234° |
| 2026-04-18 04:43 | 28.38776 | -96.33498 | 37503 ft | 389 kts | 234° |
| 2026-04-18 04:43 | 28.37059 | -96.35873 | 37775 ft | 388 kts | 234° |
| 2026-04-18 04:43 | 28.35346 | -96.38242 | 37961 ft | 390 kts | 234° |
| 2026-04-18 04:44 | 28.33618 | -96.40632 | 37943 ft | 392 kts | 234° |
| 2026-04-18 04:44 | 28.30156 | -96.45409 | 37943 ft | 390 kts | 234° |
| 2026-04-18 04:45 | 28.26735 | -96.50124 | 37946 ft | 385 kts | 234° |
| 2026-04-18 04:45 | 28.23340 | -96.54799 | 37945 ft | 382 kts | 234° |
| 2026-04-18 04:46 | 28.19963 | -96.59446 | 37930 ft | 381 kts | 234° |
| 2026-04-18 04:46 | 28.16586 | -96.64088 | 37945 ft | 382 kts | 234° |
| 2026-04-18 04:47 | 28.13190 | -96.68751 | 37950 ft | 385 kts | 234° |
| 2026-04-18 04:47 | 28.09773 | -96.73437 | 37951 ft | 387 kts | 234° |
| 2026-04-18 04:48 | 28.06338 | -96.78142 | 37948 ft | 388 kts | 234° |
| 2026-04-18 04:48 | 28.02888 | -96.82862 | 37949 ft | 389 kts | 234° |
| 2026-04-18 04:49 | 27.99434 | -96.87581 | 37955 ft | 389 kts | 234° |
| 2026-04-18 04:49 | 27.95976 | -96.92302 | 37949 ft | 389 kts | 234° |
| 2026-04-18 04:50 | 27.92519 | -96.97016 | 37966 ft | 389 kts | 234° |
| 2026-04-18 04:50 | 27.89068 | -97.01718 | 37970 ft | 388 kts | 234° |
| 2026-04-18 04:51 | 27.85616 | -97.06415 | 37966 ft | 388 kts | 233° |
| 2026-04-18 04:51 | 27.82165 | -97.11105 | 37973 ft | 388 kts | 233° |
| 2026-04-18 04:52 | 27.78714 | -97.15792 | 37972 ft | 388 kts | 233° |
| 2026-04-18 04:52 | 27.75845 | -97.19684 | 37945 ft | 388 kts | 233° |
| 2026-04-18 04:53 | 27.72389 | -97.24369 | 37944 ft | 388 kts | 233° |
| 2026-04-18 04:53 | 27.68855 | -97.28976 | 37935 ft | 391 kts | 226° |
| 2026-04-18 04:54 | 27.64215 | -97.32334 | 37930 ft | 401 kts | 215° |
| 2026-04-18 04:54 | 27.59272 | -97.35276 | 37913 ft | 401 kts | 214° |
| 2026-04-18 04:55 | 27.54341 | -97.38210 | 37915 ft | 401 kts | 214° |
| 2026-04-18 04:55 | 27.49423 | -97.41173 | 37910 ft | 400 kts | 215° |
| 2026-04-18 04:56 | 27.42070 | -97.45632 | 37908 ft | 400 kts | 215° |
| 2026-04-18 04:56 | 27.37171 | -97.48604 | 37906 ft | 400 kts | 215° |
| 2026-04-18 04:57 | 27.32280 | -97.51567 | 37910 ft | 399 kts | 215° |
| 2026-04-18 04:57 | 27.27386 | -97.54529 | 37910 ft | 399 kts | 215° |
| 2026-04-18 04:58 | 27.22502 | -97.57482 | 37910 ft | 399 kts | 215° |
| 2026-04-18 04:58 | 27.17613 | -97.60435 | 37905 ft | 399 kts | 214° |
| 2026-04-18 04:59 | 27.12724 | -97.63386 | 37892 ft | 399 kts | 214° |
| 2026-04-18 04:59 | 27.07829 | -97.66336 | 37893 ft | 399 kts | 214° |
| 2026-04-18 05:00 | 27.02924 | -97.69292 | 37290 ft | 400 kts | 214° |
| 2026-04-18 05:00 | 27.00481 | -97.70760 | 36626 ft | 397 kts | 214° |
| 2026-04-18 05:00 | 26.98056 | -97.72217 | 35932 ft | 396 kts | 214° |
| 2026-04-18 05:01 | 26.95625 | -97.73678 | 35119 ft | 397 kts | 214° |
| 2026-04-18 05:01 | 26.93183 | -97.75147 | 34316 ft | 399 kts | 213° |
| 2026-04-18 05:01 | 26.90726 | -97.76625 | 33384 ft | 403 kts | 213° |
| 2026-04-18 05:01 | 26.88243 | -97.78117 | 32448 ft | 406 kts | 213° |
| 2026-04-18 05:02 | 26.85745 | -97.79616 | 31503 ft | 409 kts | 213° |
| 2026-04-18 05:02 | 26.83227 | -97.81126 | 30540 ft | 413 kts | 213° |
| 2026-04-18 05:02 | 26.80686 | -97.82650 | 29654 ft | 414 kts | 213° |
| 2026-04-18 05:02 | 26.78154 | -97.84164 | 28815 ft | 411 kts | 212° |
| 2026-04-18 05:03 | 26.75662 | -97.85692 | 27968 ft | 406 kts | 216° |
| 2026-04-18 05:03 | 26.73391 | -97.87589 | 26755 ft | 410 kts | 224° |
| 2026-04-18 05:03 | 26.71393 | -97.89866 | 25742 ft | 411 kts | 230° |
| 2026-04-18 05:03 | 26.69496 | -97.92247 | 24947 ft | 409 kts | 230° |
| 2026-04-18 05:04 | 26.67625 | -97.94594 | 24277 ft | 398 kts | 230° |
| 2026-04-18 05:04 | 26.65821 | -97.96846 | 23821 ft | 379 kts | 230° |
| 2026-04-18 05:04 | 26.64104 | -97.98980 | 23542 ft | 358 kts | 229° |
| 2026-04-18 05:04 | 26.62488 | -98.00983 | 23366 ft | 337 kts | 229° |
| 2026-04-18 05:05 | 26.60927 | -98.02914 | 22620 ft | 333 kts | 229° |
| 2026-04-18 05:05 | 26.59379 | -98.04830 | 21871 ft | 331 kts | 230° |
| 2026-04-18 05:05 | 26.57841 | -98.06731 | 21113 ft | 330 kts | 230° |
| 2026-04-18 05:05 | 26.56311 | -98.08621 | 20409 ft | 323 kts | 230° |
| 2026-04-18 05:06 | 26.54824 | -98.10454 | 19673 ft | 315 kts | 230° |
| 2026-04-18 05:06 | 26.53367 | -98.12250 | 18870 ft | 310 kts | 230° |
| 2026-04-18 05:06 | 26.51928 | -98.14024 | 18043 ft | 307 kts | 230° |
| 2026-04-18 05:06 | 26.50499 | -98.15785 | 17124 ft | 305 kts | 230° |
| 2026-04-18 05:07 | 26.49097 | -98.17511 | 16219 ft | 293 kts | 230° |
| 2026-04-18 05:07 | 26.47765 | -98.19149 | 15344 ft | 278 kts | 230° |
| 2026-04-18 05:07 | 26.46497 | -98.20708 | 14456 ft | 271 kts | 230° |
| 2026-04-18 05:07 | 26.45243 | -98.22251 | 13571 ft | 265 kts | 230° |
| 2026-04-18 05:08 | 26.44022 | -98.23754 | 12625 ft | 258 kts | 229° |
| 2026-04-18 05:08 | 26.42829 | -98.25220 | 11679 ft | 252 kts | 229° |
| 2026-04-18 05:08 | 26.41652 | -98.26668 | 10708 ft | 251 kts | 229° |
| 2026-04-18 05:08 | 26.40485 | -98.28104 | 9770 ft | 249 kts | 228° |
| 2026-04-18 05:09 | 26.39323 | -98.29533 | 8762 ft | 248 kts | 227° |
| 2026-04-18 05:09 | 26.38168 | -98.30952 | 7781 ft | 247 kts | 227° |
| 2026-04-18 05:09 | 26.37016 | -98.32367 | 6831 ft | 246 kts | 226° |
| 2026-04-18 05:09 | 26.35868 | -98.33775 | 5889 ft | 244 kts | 224° |
| 2026-04-18 05:10 | 26.34739 | -98.35161 | 5010 ft | 238 kts | 224° |
| 2026-04-18 05:10 | 26.33583 | -98.36428 | 4198 ft | 226 kts | 209° |
| 2026-04-18 05:10 | 26.32157 | -98.36766 | 3640 ft | 202 kts | 168° |
| 2026-04-18 05:10 | 26.30976 | -98.36083 | 3264 ft | 184 kts | 146° |
| 2026-04-18 05:11 | 26.30000 | -98.35299 | 3016 ft | 162 kts | 146° |
| 2026-04-18 05:11 | 26.29156 | -98.34564 | 2810 ft | 148 kts | 146° |
| 2026-04-18 05:11 | 26.28367 | -98.33854 | 2615 ft | 145 kts | 146° |
| 2026-04-18 05:11 | 26.27586 | -98.33144 | 2440 ft | 139 kts | 144° |
| 2026-04-18 05:12 | 26.26874 | -98.32491 | 2256 ft | 127 kts | 145° |
| 2026-04-18 05:12 | 26.26208 | -98.31882 | 2096 ft | 123 kts | 145° |
| 2026-04-18 05:12 | 26.25543 | -98.31274 | 1937 ft | 124 kts | 145° |
| 2026-04-18 05:12 | 26.24880 | -98.30667 | 1781 ft | 121 kts | 146° |
| 2026-04-18 05:13 | 26.24258 | -98.30093 | 1631 ft | 110 kts | 146° |
| 2026-04-18 05:13 | 26.23651 | -98.29538 | 1458 ft | 112 kts | 146° |
| 2026-04-18 05:13 | 26.23044 | -98.28989 | 1301 ft | 115 kts | 144° |
| 2026-04-18 05:13 | 26.22417 | -98.28412 | 1175 ft | 119 kts | 143° |
| 2026-04-18 05:14 | 26.21776 | -98.27821 | 1016 ft | 121 kts | 143° |
| 2026-04-18 05:14 | 26.21129 | -98.27230 | 865 ft | 123 kts | 142° |
| 2026-04-18 05:14 | 26.20462 | -98.26618 | 730 ft | 126 kts | 141° |
| 2026-04-18 05:14 | 26.19770 | -98.25985 | 560 ft | 131 kts | 143° |
| 2026-04-18 05:15 | 26.19059 | -98.25331 | 368 ft | 133 kts | 143° |
| 2026-04-18 05:15 | 26.18342 | -98.24680 | 156 ft | 130 kts | 142° |
| 2026-04-18 05:15 | 26.17696 | -98.24090 | 109 ft | 102 kts | 141° |
| 2026-04-18 05:15 | 26.17312 | -98.23740 | 110 ft | 48 kts | 141° |
| 2026-04-18 05:16 | 26.17094 | -98.23541 | 109 ft | 30 kts | 140° |
| 2026-04-18 05:16 | 26.17005 | -98.23443 | 107 ft | 11 kts | 109° |
| 2026-04-18 05:16 | 26.17036 | -98.23366 | 103 ft | 13 kts | 39° |
| 2026-04-18 05:16 | 26.17092 | -98.23382 | 102 ft | 9 kts | 322° |
| 2026-04-18 05:17 | 26.17151 | -98.23435 | 102 ft | 13 kts | 321° |
| 2026-04-18 05:17 | 26.17230 | -98.23509 | 101 ft | 17 kts | 320° |
| 2026-04-18 05:17 | 26.17331 | -98.23600 | 102 ft | 20 kts | 321° |
| 2026-04-18 05:17 | 26.17431 | -98.23688 | 107 ft | 18 kts | 322° |
| 2026-04-18 05:18 | 26.17533 | -98.23781 | 101 ft | 19 kts | 320° |
| 2026-04-18 05:18 | 26.17634 | -98.23875 | 102 ft | 19 kts | 321° |
| 2026-04-18 05:18 | 26.17732 | -98.23964 | 100 ft | 17 kts | 320° |
| 2026-04-18 05:18 | 26.17804 | -98.24026 | 102 ft | 11 kts | 335° |
| 2026-04-18 05:19 | 26.17863 | -98.23985 | 100 ft | 11 kts | 51° |
| 2026-04-18 05:19 | 26.17907 | -98.23925 | 100 ft | 9 kts | 50° |
| 2026-04-18 05:19 | 26.17956 | -98.23882 | 100 ft | 9 kts | 18° |
| 2026-04-18 05:19 | 26.18011 | -98.23873 | 100 ft | 7 kts | 359° |
| 2026-04-18 05:20 | 26.18037 | -98.23903 | 100 ft | 3 kts | 294° |
| 2026-04-18 05:20 | 26.18041 | -98.23916 | 100 ft | 0 kts | 292° |